HAZ3166 ZSPD-ZGGG
Flight info
| Callsign | HAZ3166 |
|---|---|
| Flight time | N/A |
| Altitude | 34100 |
| Route | NXD81D NXD W131 AKDIM A470 DUBGO W134 ELNEX A599 PLT W19 OLPAB OLPAB8 |
| Aircraft | B77W/H-SDE1E2E3FGHIJ2J3J4J5M1RWXY/LB1D1 |
Departure
| Time | 2026-05-05 07:07 |
|---|---|
| Airport | Shanghai Pudong International Airport (ZSPD) |
Arrival
| Time | N/A |
|---|---|
| Airport | Guangzhou Baiyun International Airport (ZGGG) |
| Time | Latitude | Longitude | Altitude | Speed | Heading |
|---|---|---|---|---|---|
| 2026-05-05 06:54 | 31.13975 | 121.80069 | 27 ft | 0 kts | 123° |
| 2026-05-05 06:57 | 31.13977 | 121.80065 | 27 ft | 2 kts | 123° |
| 2026-05-05 06:57 | 31.13985 | 121.80051 | 27 ft | 2 kts | 123° |
| 2026-05-05 06:57 | 31.13992 | 121.80039 | 27 ft | 2 kts | 121° |
| 2026-05-05 06:57 | 31.13997 | 121.80022 | 27 ft | 2 kts | 93° |
| 2026-05-05 06:58 | 31.13995 | 121.80006 | 27 ft | 2 kts | 70° |
| 2026-05-05 06:58 | 31.13988 | 121.79990 | 27 ft | 2 kts | 47° |
| 2026-05-05 06:58 | 31.13977 | 121.79980 | 27 ft | 2 kts | 24° |
| 2026-05-05 06:58 | 31.13962 | 121.79975 | 27 ft | 2 kts | 1° |
| 2026-05-05 06:59 | 31.13950 | 121.79976 | 27 ft | 0 kts | 343° |
| 2026-05-05 06:59 | 31.13946 | 121.79977 | 27 ft | 0 kts | 342° |
| 2026-05-05 07:00 | 31.13947 | 121.79977 | 27 ft | 0 kts | 342° |
| 2026-05-05 07:01 | 31.13970 | 121.79968 | 27 ft | 5 kts | 342° |
| 2026-05-05 07:01 | 31.14016 | 121.79951 | 27 ft | 8 kts | 342° |
| 2026-05-05 07:01 | 31.14075 | 121.79906 | 27 ft | 12 kts | 297° |
| 2026-05-05 07:01 | 31.14059 | 121.79803 | 27 ft | 14 kts | 251° |
| 2026-05-05 07:02 | 31.14033 | 121.79674 | 27 ft | 17 kts | 265° |
| 2026-05-05 07:02 | 31.14113 | 121.79578 | 27 ft | 19 kts | 344° |
| 2026-05-05 07:02 | 31.14255 | 121.79526 | 27 ft | 22 kts | 341° |
| 2026-05-05 07:02 | 31.14413 | 121.79465 | 27 ft | 25 kts | 342° |
| 2026-05-05 07:03 | 31.14587 | 121.79398 | 27 ft | 26 kts | 342° |
| 2026-05-05 07:03 | 31.14758 | 121.79342 | 27 ft | 24 kts | 340° |
| 2026-05-05 07:03 | 31.14917 | 121.79275 | 27 ft | 23 kts | 341° |
| 2026-05-05 07:03 | 31.15065 | 121.79218 | 27 ft | 21 kts | 343° |
| 2026-05-05 07:04 | 31.15205 | 121.79168 | 27 ft | 22 kts | 342° |
| 2026-05-05 07:04 | 31.15376 | 121.79102 | 27 ft | 27 kts | 342° |
| 2026-05-05 07:04 | 31.15554 | 121.79033 | 27 ft | 25 kts | 341° |
| 2026-05-05 07:04 | 31.15718 | 121.78972 | 27 ft | 24 kts | 342° |
| 2026-05-05 07:05 | 31.15881 | 121.78909 | 27 ft | 24 kts | 343° |
| 2026-05-05 07:05 | 31.16035 | 121.78853 | 27 ft | 19 kts | 342° |
| 2026-05-05 07:05 | 31.16125 | 121.78812 | 27 ft | 12 kts | 326° |
| 2026-05-05 07:05 | 31.16144 | 121.78726 | 27 ft | 11 kts | 253° |
| 2026-05-05 07:06 | 31.16114 | 121.78645 | 27 ft | 10 kts | 227° |
| 2026-05-05 07:06 | 31.16052 | 121.78629 | 27 ft | 9 kts | 169° |
| 2026-05-05 07:06 | 31.15973 | 121.78657 | 27 ft | 25 kts | 161° |
| 2026-05-05 07:06 | 31.15568 | 121.78809 | 27 ft | 95 kts | 161° |
| 2026-05-05 07:07 | 31.14743 | 121.79120 | 28 ft | 153 kts | 162° |
| 2026-05-05 07:07 | 31.13581 | 121.79547 | 208 ft | 186 kts | 163° |
| 2026-05-05 07:07 | 31.12332 | 121.79977 | 980 ft | 190 kts | 165° |
| 2026-05-05 07:07 | 31.11108 | 121.80407 | 1799 ft | 190 kts | 165° |
| 2026-05-05 07:08 | 31.09782 | 121.80870 | 2286 ft | 209 kts | 166° |
| 2026-05-05 07:08 | 31.08319 | 121.81365 | 2791 ft | 228 kts | 165° |
| 2026-05-05 07:08 | 31.06729 | 121.81902 | 3298 ft | 248 kts | 165° |
| 2026-05-05 07:08 | 31.05025 | 121.82479 | 4011 ft | 258 kts | 165° |
| 2026-05-05 07:09 | 31.03309 | 121.83050 | 4829 ft | 263 kts | 167° |
| 2026-05-05 07:09 | 31.01468 | 121.83106 | 5582 ft | 271 kts | 192° |
| 2026-05-05 07:09 | 30.99735 | 121.82245 | 5911 ft | 277 kts | 217° |
| 2026-05-05 07:09 | 30.98479 | 121.80553 | 5916 ft | 276 kts | 244° |
| 2026-05-05 07:10 | 30.97841 | 121.78430 | 5948 ft | 277 kts | 254° |
| 2026-05-05 07:10 | 30.97310 | 121.76291 | 5946 ft | 277 kts | 253° |
| 2026-05-05 07:10 | 30.96739 | 121.74111 | 5914 ft | 276 kts | 253° |
| 2026-05-05 07:10 | 30.96358 | 121.71906 | 5927 ft | 277 kts | 271° |
| 2026-05-05 07:11 | 30.96594 | 121.69611 | 6307 ft | 290 kts | 281° |
| 2026-05-05 07:11 | 30.96981 | 121.67403 | 7482 ft | 279 kts | 282° |
| 2026-05-05 07:11 | 30.97389 | 121.65187 | 8421 ft | 278 kts | 283° |
| 2026-05-05 07:11 | 30.97803 | 121.62952 | 9229 ft | 282 kts | 283° |
| 2026-05-05 07:12 | 30.98217 | 121.60711 | 10047 ft | 283 kts | 283° |
| 2026-05-05 07:12 | 30.98633 | 121.58456 | 10627 ft | 293 kts | 283° |
| 2026-05-05 07:12 | 30.99073 | 121.56069 | 11127 ft | 310 kts | 283° |
| 2026-05-05 07:12 | 30.99532 | 121.53577 | 11593 ft | 324 kts | 283° |
| 2026-05-05 07:13 | 31.00016 | 121.50947 | 12066 ft | 338 kts | 283° |
| 2026-05-05 07:13 | 31.00521 | 121.48202 | 12589 ft | 353 kts | 283° |
| 2026-05-05 07:13 | 31.01040 | 121.45380 | 13139 ft | 366 kts | 283° |
| 2026-05-05 07:13 | 31.01584 | 121.42434 | 13934 ft | 373 kts | 283° |
| 2026-05-05 07:14 | 31.02121 | 121.39518 | 14887 ft | 374 kts | 283° |
| 2026-05-05 07:14 | 31.02667 | 121.36551 | 15759 ft | 378 kts | 283° |
| 2026-05-05 07:14 | 31.03221 | 121.33532 | 16554 ft | 384 kts | 282° |
| 2026-05-05 07:14 | 31.03779 | 121.30488 | 17425 ft | 387 kts | 282° |
| 2026-05-05 07:15 | 31.04338 | 121.27433 | 18304 ft | 390 kts | 282° |
| 2026-05-05 07:15 | 31.04904 | 121.24337 | 19088 ft | 396 kts | 282° |
| 2026-05-05 07:15 | 31.05484 | 121.21152 | 19841 ft | 401 kts | 282° |
| 2026-05-05 07:15 | 31.06063 | 121.17976 | 20580 ft | 406 kts | 281° |
| 2026-05-05 07:16 | 31.06482 | 121.14715 | 21321 ft | 410 kts | 274° |
| 2026-05-05 07:16 | 31.06458 | 121.11374 | 22043 ft | 414 kts | 265° |
| 2026-05-05 07:16 | 31.05977 | 121.08071 | 22686 ft | 420 kts | 256° |
| 2026-05-05 07:16 | 31.05183 | 121.04795 | 23347 ft | 424 kts | 254° |
| 2026-05-05 07:17 | 31.04332 | 121.01419 | 24108 ft | 426 kts | 254° |
| 2026-05-05 07:17 | 31.03500 | 120.98113 | 24895 ft | 425 kts | 254° |
| 2026-05-05 07:17 | 31.02664 | 120.94779 | 25562 ft | 427 kts | 254° |
| 2026-05-05 07:17 | 31.01838 | 120.91473 | 26131 ft | 430 kts | 254° |
| 2026-05-05 07:18 | 31.00996 | 120.88102 | 26773 ft | 432 kts | 254° |
| 2026-05-05 07:18 | 31.00136 | 120.84656 | 27442 ft | 434 kts | 254° |